createdAt,value
2022-12-05T00:02:01.000Z,28
2022-12-05T00:04:27.000Z,24.27
2022-12-05T00:06:54.000Z,23.03
2022-12-05T00:09:21.000Z,24.47
2022-12-05T00:12:02.000Z,24.27
2022-12-05T00:14:41.000Z,27.07
2022-12-05T00:16:37.000Z,23.67
2022-12-05T00:19:03.000Z,23.65
2022-12-05T00:21:27.000Z,24.1
2022-12-05T00:23:54.000Z,18.7
2022-12-05T00:26:20.000Z,18.55
2022-12-05T00:28:46.000Z,17.42
2022-12-05T00:31:12.000Z,16.97
2022-12-05T00:33:37.000Z,17.17
2022-12-05T00:36:03.000Z,16.6
2022-12-05T00:38:31.000Z,15.67
2022-12-05T00:40:56.000Z,22
2022-12-05T00:43:21.000Z,17.75
2022-12-05T00:45:48.000Z,15.3
2022-12-05T00:48:13.000Z,18.02
2022-12-05T00:50:39.000Z,17.6
2022-12-05T00:53:05.000Z,19.92
2022-12-05T00:55:32.000Z,18.35
2022-12-05T00:57:59.000Z,18.65
2022-12-05T01:00:43.000Z,19.65
2022-12-05T01:02:48.000Z,24.12
2022-12-05T01:05:15.000Z,24.2
2022-12-05T01:07:40.000Z,27.03
2022-12-05T01:10:09.000Z,31.27
2022-12-05T01:12:32.000Z,28.1
2022-12-05T01:14:59.000Z,25.72
2022-12-05T01:17:26.000Z,28.23
2022-12-05T01:19:51.000Z,34.08
2022-12-05T01:22:16.000Z,31.6
2022-12-05T01:24:42.000Z,34.2
2022-12-05T01:27:09.000Z,33.58
2022-12-05T01:29:33.000Z,32.98
2022-12-05T01:32:00.000Z,33.3
2022-12-05T01:34:25.000Z,36.23
2022-12-05T01:36:51.000Z,34.23
2022-12-05T01:39:16.000Z,35.55
2022-12-05T01:41:42.000Z,36.6
2022-12-05T01:44:14.000Z,35.2
2022-12-05T01:46:40.000Z,40.03
2022-12-05T01:49:00.000Z,44
2022-12-05T01:51:25.000Z,46.13
2022-12-05T01:53:51.000Z,44.38
2022-12-05T01:56:17.000Z,51.48
2022-12-05T01:58:43.000Z,45.23
2022-12-05T02:01:10.000Z,46.83
2022-12-05T02:03:34.000Z,49.88
2022-12-05T02:06:00.000Z,49.9
2022-12-05T02:08:26.000Z,51.13
2022-12-05T02:10:51.000Z,48.8
2022-12-05T02:13:16.000Z,46.87
2022-12-05T02:15:49.000Z,45.55
2022-12-05T02:18:10.000Z,47.05
2022-12-05T02:20:35.000Z,55.92
2022-12-05T02:23:00.000Z,54
2022-12-05T02:25:26.000Z,50.8
2022-12-05T02:27:52.000Z,54.4
2022-12-05T02:30:20.000Z,56.05
2022-12-05T02:32:44.000Z,47.4
2022-12-05T02:35:10.000Z,55.5
2022-12-05T02:37:35.000Z,62.15
2022-12-05T02:40:00.000Z,57.7
2022-12-05T02:42:26.000Z,57.5
2022-12-05T02:44:53.000Z,59.8
2022-12-05T02:47:18.000Z,65.8
2022-12-05T02:49:43.000Z,61.7
2022-12-05T02:52:10.000Z,51.18
2022-12-05T02:54:35.000Z,55
2022-12-05T02:57:00.000Z,51.93
2022-12-05T02:59:31.000Z,54
2022-12-05T03:02:05.000Z,55.67
2022-12-05T03:04:19.000Z,52.25
2022-12-05T03:06:44.000Z,50.67
2022-12-05T03:09:09.000Z,55.15
2022-12-05T03:11:36.000Z,52.2
2022-12-05T03:14:02.000Z,52.73
2022-12-05T03:16:27.000Z,49.47
2022-12-05T03:18:53.000Z,52.33
2022-12-05T03:21:18.000Z,49.97
2022-12-05T03:23:44.000Z,51.58
2022-12-05T03:26:13.000Z,48.87
2022-12-05T03:31:21.000Z,49.1
2022-12-05T03:33:51.000Z,44.67
2022-12-05T03:36:18.000Z,43.42
2022-12-05T03:38:48.000Z,40.2
2022-12-05T03:43:48.000Z,42.48
2022-12-05T03:46:16.000Z,41.8
2022-12-05T03:48:47.000Z,42.05
2022-12-05T03:51:12.000Z,39.55
2022-12-05T03:53:38.000Z,39.8
2022-12-05T03:56:04.000Z,39.37
2022-12-05T03:58:29.000Z,42.83
2022-12-05T04:01:04.000Z,43.42
2022-12-05T04:03:22.000Z,41.98
2022-12-05T04:05:47.000Z,43.68
2022-12-05T04:08:13.000Z,46.73
2022-12-05T04:10:38.000Z,45.37
2022-12-05T04:13:05.000Z,44.35
2022-12-05T04:15:32.000Z,45.83
2022-12-05T04:17:55.000Z,47.13
2022-12-05T04:20:21.000Z,50.12
2022-12-05T04:22:48.000Z,42.65
2022-12-05T04:25:15.000Z,50.9
2022-12-05T04:27:40.000Z,45.37
2022-12-05T04:30:09.000Z,43.17
2022-12-05T04:32:33.000Z,42.15
2022-12-05T04:34:58.000Z,43.38
2022-12-05T04:37:23.000Z,40.8
2022-12-05T04:39:51.000Z,35.68
2022-12-05T04:42:19.000Z,33.85
2022-12-05T04:44:43.000Z,33.02
2022-12-05T04:47:10.000Z,33.98
2022-12-05T04:49:36.000Z,31.23
2022-12-05T04:52:01.000Z,33.1
2022-12-05T04:54:28.000Z,29.7
2022-12-05T04:56:53.000Z,26.2
2022-12-05T04:59:18.000Z,27.17
2022-12-05T05:01:44.000Z,27.27
2022-12-05T05:04:10.000Z,24.85
2022-12-05T05:06:36.000Z,21.6
2022-12-05T05:09:03.000Z,26.23
2022-12-05T05:11:29.000Z,23.55
2022-12-05T05:13:54.000Z,27.2
2022-12-05T05:16:20.000Z,19.65
2022-12-05T05:18:45.000Z,18.5
2022-12-05T05:21:12.000Z,18.2
2022-12-05T05:23:37.000Z,18.2
2022-12-05T05:26:05.000Z,19.95
2022-12-05T05:28:28.000Z,19.95
2022-12-05T05:30:54.000Z,20.3
2022-12-05T05:33:20.000Z,17.92
2022-12-05T05:35:46.000Z,21.73
2022-12-05T05:38:12.000Z,17.03
2022-12-05T05:40:39.000Z,19.87
2022-12-05T05:43:05.000Z,24.93
2022-12-05T05:45:31.000Z,28.2
2022-12-05T05:47:55.000Z,29.6
2022-12-05T05:50:22.000Z,28.3
2022-12-05T05:52:47.000Z,24.35
2022-12-05T05:55:17.000Z,26.83
2022-12-05T05:57:39.000Z,25.27
2022-12-05T06:00:09.000Z,23.83
2022-12-05T06:02:31.000Z,29.27
2022-12-05T06:04:59.000Z,25.97
2022-12-05T06:07:28.000Z,30.1
2022-12-05T06:09:53.000Z,28
2022-12-05T06:12:21.000Z,26.9
2022-12-05T06:14:51.000Z,23
2022-12-05T06:19:47.000Z,21.35
2022-12-05T06:22:12.000Z,22.93
2022-12-05T06:24:39.000Z,22.63
2022-12-05T06:27:06.000Z,23.25
2022-12-05T06:29:34.000Z,19.85
2022-12-05T06:32:00.000Z,20.57
2022-12-05T06:34:27.000Z,22.07
2022-12-05T06:36:52.000Z,22.07
2022-12-05T06:39:22.000Z,21.17
2022-12-05T06:41:46.000Z,23.05
2022-12-05T06:44:11.000Z,23.67
2022-12-05T06:46:38.000Z,25.3
2022-12-05T06:49:07.000Z,23.5
2022-12-05T06:51:32.000Z,26.35
2022-12-05T06:53:59.000Z,26.57
2022-12-05T06:58:50.000Z,31.68
2022-12-05T07:01:33.000Z,28.65
2022-12-05T07:03:42.000Z,31.3
2022-12-05T07:06:07.000Z,33.28
2022-12-05T07:08:39.000Z,37.8
2022-12-05T07:11:04.000Z,40.98
2022-12-05T07:13:32.000Z,47.53
2022-12-05T07:16:06.000Z,51.92
2022-12-05T07:18:24.000Z,55.9
2022-12-05T07:20:51.000Z,47.95
2022-12-05T07:23:18.000Z,48.3
2022-12-05T07:25:42.000Z,43.67
2022-12-05T07:28:09.000Z,39.9
2022-12-05T07:30:42.000Z,36.63
2022-12-05T07:33:01.000Z,32.5
2022-12-05T07:35:28.000Z,27.35
2022-12-05T07:37:54.000Z,29.53
2022-12-05T07:40:22.000Z,24.87
2022-12-05T07:42:48.000Z,26.73
2022-12-05T07:45:16.000Z,28.75
2022-12-05T07:47:38.000Z,32.23
2022-12-05T07:50:05.000Z,27.48
2022-12-05T07:52:37.000Z,24.75
2022-12-05T07:55:00.000Z,28.2
2022-12-05T07:57:25.000Z,26.87
2022-12-05T07:59:54.000Z,26.6
2022-12-05T08:02:18.000Z,21.2
2022-12-05T08:04:43.000Z,23.65
2022-12-05T08:07:09.000Z,19.37
2022-12-05T08:09:36.000Z,17.98
2022-12-05T08:12:01.000Z,18.82
2022-12-05T08:14:29.000Z,19.12
2022-12-05T08:16:55.000Z,21.42
2022-12-05T08:19:20.000Z,19.92
2022-12-05T08:21:47.000Z,22.7
2022-12-05T08:24:14.000Z,21.93
2022-12-05T08:26:41.000Z,22.9
2022-12-05T08:29:07.000Z,20.1
2022-12-05T08:31:33.000Z,19.57
2022-12-05T08:34:00.000Z,17.85
2022-12-05T08:36:25.000Z,22.93
2022-12-05T08:38:53.000Z,20.5
2022-12-05T08:41:16.000Z,19.07
2022-12-05T08:43:42.000Z,18.53
2022-12-05T08:46:10.000Z,20.4
2022-12-05T08:48:35.000Z,22.48
2022-12-05T08:51:05.000Z,22.22
2022-12-05T08:53:29.000Z,25.37
2022-12-05T08:55:54.000Z,25.2
2022-12-05T08:58:22.000Z,31.25
2022-12-05T09:00:53.000Z,28.77
2022-12-05T09:03:13.000Z,29.35
2022-12-05T09:05:39.000Z,29.65
2022-12-05T09:08:05.000Z,32.08
2022-12-05T09:10:32.000Z,35.43
2022-12-05T09:12:57.000Z,31.07
2022-12-05T09:15:26.000Z,37.83
2022-12-05T09:17:53.000Z,33.18
2022-12-05T09:20:24.000Z,36.35
2022-12-05T09:22:44.000Z,36.55
2022-12-05T09:25:09.000Z,37.53
2022-12-05T09:27:35.000Z,33.88
2022-12-05T09:30:01.000Z,37.2
2022-12-05T09:32:27.000Z,37.2
2022-12-05T09:34:52.000Z,36.17
2022-12-05T09:37:22.000Z,40.63
2022-12-05T09:39:47.000Z,38.13
2022-12-05T09:42:14.000Z,36.7
2022-12-05T09:44:41.000Z,39.98
2022-12-05T09:47:12.000Z,41.6
2022-12-05T09:49:39.000Z,37.67
2022-12-05T09:52:02.000Z,39.48
2022-12-05T09:54:30.000Z,35.87
2022-12-05T09:56:55.000Z,42.4
2022-12-05T09:59:21.000Z,36.17
2022-12-05T10:01:49.000Z,38.08
2022-12-05T10:04:16.000Z,39.25
2022-12-05T10:06:42.000Z,35.13
2022-12-05T10:09:09.000Z,34.3
2022-12-05T10:11:34.000Z,38.57
2022-12-05T10:13:59.000Z,38.23
2022-12-05T10:16:25.000Z,35.13
2022-12-05T10:18:50.000Z,32.07
2022-12-05T10:21:16.000Z,29.95
2022-12-05T10:23:46.000Z,25.15
2022-12-05T10:26:12.000Z,24.65
2022-12-05T10:28:37.000Z,24.17
2022-12-05T10:31:04.000Z,23.6
2022-12-05T10:33:29.000Z,26.8
2022-12-05T10:35:55.000Z,24.8
2022-12-05T10:38:22.000Z,25.88
2022-12-05T10:40:51.000Z,27.67
2022-12-05T10:43:13.000Z,25.57
2022-12-05T10:45:39.000Z,26.93
2022-12-05T10:48:03.000Z,27.3
2022-12-05T10:50:33.000Z,26.6
2022-12-05T10:53:05.000Z,30.65
2022-12-05T10:55:30.000Z,29.25
2022-12-05T10:57:56.000Z,28.07
2022-12-05T11:00:31.000Z,27.3
2022-12-05T11:02:51.000Z,23.22
2022-12-05T11:05:19.000Z,24.7
2022-12-05T11:07:45.000Z,26.2
2022-12-05T11:10:16.000Z,26.48
2022-12-05T11:12:40.000Z,25.92
2022-12-05T11:15:09.000Z,27.77
2022-12-05T11:17:32.000Z,23.57
2022-12-05T11:19:58.000Z,25.33
2022-12-05T11:22:23.000Z,24.27
2022-12-05T11:24:50.000Z,22.75
2022-12-05T11:27:16.000Z,23.6
2022-12-05T11:29:45.000Z,20.97
2022-12-05T11:32:12.000Z,19.93
2022-12-05T11:34:37.000Z,22.73
2022-12-05T11:37:02.000Z,21.47
2022-12-05T11:41:55.000Z,22.27
2022-12-05T11:44:22.000Z,19.92
2022-12-05T11:46:46.000Z,19.48
2022-12-05T11:49:15.000Z,17.85
2022-12-05T11:51:43.000Z,20.55
2022-12-05T11:54:11.000Z,19.1
2022-12-05T11:56:35.000Z,20.95
2022-12-05T11:59:01.000Z,19.42
2022-12-05T12:01:30.000Z,20.82
2022-12-05T12:03:53.000Z,18.7
2022-12-05T12:06:19.000Z,17.33
2022-12-05T12:08:45.000Z,21
2022-12-05T12:11:12.000Z,19.85
2022-12-05T12:13:38.000Z,17.37
2022-12-05T12:16:18.000Z,17.15
2022-12-05T12:18:33.000Z,18.87
2022-12-05T12:20:58.000Z,18.05
2022-12-05T12:23:28.000Z,18.92
2022-12-05T12:25:57.000Z,19.2
2022-12-05T12:28:28.000Z,19.77
2022-12-05T12:31:00.000Z,20.5
2022-12-05T12:33:15.000Z,18.85
2022-12-05T12:35:42.000Z,21.33
2022-12-05T12:40:46.000Z,23.83
2022-12-05T12:43:14.000Z,22.98
2022-12-05T12:45:31.000Z,24.25
2022-12-05T12:47:58.000Z,21.12
2022-12-05T12:50:24.000Z,22.85
2022-12-05T12:52:50.000Z,24.65
2022-12-05T12:55:17.000Z,22.93
2022-12-05T12:57:40.000Z,25.25
2022-12-05T13:00:16.000Z,23.23
2022-12-05T13:02:38.000Z,24.92
2022-12-05T13:07:35.000Z,19.7
2022-12-05T13:10:04.000Z,23.12
2022-12-05T13:12:29.000Z,24.75
2022-12-05T13:14:58.000Z,26.4
2022-12-05T13:17:26.000Z,27.33
2022-12-05T13:30:06.000Z,39.58
2022-12-05T13:32:30.000Z,37.13
2022-12-05T13:34:54.000Z,34.27
2022-12-05T13:37:24.000Z,33.47
2022-12-05T13:42:24.000Z,34.67
2022-12-05T13:44:51.000Z,36.03
2022-12-05T13:47:21.000Z,35
2022-12-05T13:49:48.000Z,35.1
2022-12-05T13:52:23.000Z,32.95
2022-12-05T13:57:16.000Z,31.45
2022-12-05T13:59:39.000Z,30.8
2022-12-05T14:02:08.000Z,31.25
2022-12-05T14:04:36.000Z,32.53
2022-12-05T14:07:02.000Z,31.7
2022-12-05T14:09:29.000Z,34.35
2022-12-05T14:11:54.000Z,33.92
2022-12-05T14:14:22.000Z,30.93
2022-12-05T14:16:48.000Z,34.43
2022-12-05T14:19:15.000Z,32.4
2022-12-05T14:21:41.000Z,34.43
2022-12-05T14:24:11.000Z,40.75
2022-12-05T14:29:06.000Z,34.23
2022-12-05T14:31:32.000Z,32.6
2022-12-05T14:33:58.000Z,30.2
2022-12-05T14:36:23.000Z,29.85
2022-12-05T14:38:50.000Z,33.02
2022-12-05T14:43:54.000Z,31.6
2022-12-05T14:46:12.000Z,31.85
2022-12-05T14:48:37.000Z,31.8
2022-12-05T14:51:05.000Z,30.68
2022-12-05T14:53:34.000Z,31.75
2022-12-05T15:01:39.000Z,31.45
2022-12-05T15:03:14.000Z,30.9
2022-12-05T15:03:42.000Z,26.3
2022-12-05T15:05:54.000Z,29.8
2022-12-05T15:08:20.000Z,30.32
2022-12-05T15:10:46.000Z,29.87
2022-12-05T15:13:12.000Z,33.2
2022-12-05T15:15:39.000Z,30.37
2022-12-05T15:18:06.000Z,28.37
2022-12-05T15:20:31.000Z,29.27
2022-12-05T15:22:57.000Z,28.75
2022-12-05T15:25:25.000Z,30
2022-12-05T15:27:49.000Z,29.27
2022-12-05T15:30:19.000Z,30.7
2022-12-05T15:32:41.000Z,33.38
2022-12-05T15:35:07.000Z,31.43
2022-12-05T15:37:32.000Z,31.47
2022-12-05T15:39:59.000Z,29
2022-12-05T15:42:36.000Z,32.58
2022-12-05T15:44:51.000Z,30.77
2022-12-05T15:47:15.000Z,33.17
2022-12-05T15:49:40.000Z,30.88
2022-12-05T15:52:06.000Z,32.38
2022-12-05T15:54:47.000Z,33.8
2022-12-05T15:57:14.000Z,34.2
2022-12-05T15:59:40.000Z,35.27
2022-12-05T16:02:28.000Z,33.13
2022-12-05T16:04:32.000Z,32.42
2022-12-05T16:06:44.000Z,37.55
2022-12-05T16:09:11.000Z,32.8
2022-12-05T16:11:38.000Z,35.4
2022-12-05T16:14:13.000Z,39.73
2022-12-05T16:16:26.000Z,36.15
2022-12-05T16:18:53.000Z,33.03
2022-12-05T16:21:18.000Z,33.97
2022-12-05T16:23:44.000Z,36.8
2022-12-05T16:26:10.000Z,36.45
2022-12-05T16:28:35.000Z,40.1
2022-12-05T16:31:07.000Z,34.38
2022-12-05T16:33:27.000Z,35.03
2022-12-05T16:35:53.000Z,34.65
2022-12-05T16:38:36.000Z,35.5
2022-12-05T16:40:51.000Z,36.63
2022-12-05T16:43:11.000Z,33.17
2022-12-05T16:45:36.000Z,32.83
2022-12-05T16:48:04.000Z,37.1
2022-12-05T16:50:28.000Z,41.33
2022-12-05T16:52:55.000Z,36.17
2022-12-05T16:55:20.000Z,34.03
2022-12-05T16:57:49.000Z,33.1
2022-12-05T17:00:22.000Z,35.13
2022-12-05T17:02:37.000Z,36.73
2022-12-05T17:05:04.000Z,35.43
2022-12-05T17:07:29.000Z,39.2
2022-12-05T17:09:54.000Z,33.53
2022-12-05T17:12:19.000Z,35.68
2022-12-05T17:14:45.000Z,36.9
2022-12-05T17:17:16.000Z,34.43
2022-12-05T17:19:36.000Z,37.93
2022-12-05T17:22:02.000Z,35.98
2022-12-05T17:24:27.000Z,36.03
2022-12-05T17:26:54.000Z,34.95
2022-12-05T17:29:18.000Z,36.8
2022-12-05T17:31:44.000Z,32.3
2022-12-05T17:34:10.000Z,35.67
2022-12-05T17:36:35.000Z,34.53
2022-12-05T17:39:02.000Z,33
2022-12-05T17:41:27.000Z,36.17
2022-12-05T17:43:52.000Z,34.43
2022-12-05T17:46:18.000Z,36.68
2022-12-05T17:48:44.000Z,36.17
2022-12-05T17:51:11.000Z,35.83
2022-12-05T17:53:35.000Z,35.08
2022-12-05T17:56:01.000Z,36.13
2022-12-05T17:58:32.000Z,37.1
2022-12-05T18:01:02.000Z,40.73
2022-12-05T18:03:24.000Z,40.23
2022-12-05T18:05:44.000Z,40.6
2022-12-05T18:08:11.000Z,44.15
2022-12-05T18:10:36.000Z,40.43
2022-12-05T18:13:01.000Z,42.6
2022-12-05T18:15:28.000Z,45.1
2022-12-05T18:17:52.000Z,44.87
2022-12-05T18:20:49.000Z,42.1
2022-12-05T18:23:13.000Z,44.83
2022-12-05T18:25:09.000Z,46.37
2022-12-05T18:27:35.000Z,45.45
2022-12-05T18:30:01.000Z,47.48
2022-12-05T18:32:26.000Z,41.13
2022-12-05T18:34:52.000Z,38.13
2022-12-05T18:37:19.000Z,38.45
2022-12-05T18:39:44.000Z,37.87
2022-12-05T18:42:09.000Z,34.73
2022-12-05T18:44:35.000Z,35.78
2022-12-05T18:47:01.000Z,29.9
2022-12-05T18:49:26.000Z,32.67
2022-12-05T18:51:52.000Z,33.92
2022-12-05T18:54:23.000Z,32.77
2022-12-05T18:56:44.000Z,29.47
2022-12-05T18:59:08.000Z,33.28
2022-12-05T19:01:34.000Z,30.33
2022-12-05T19:04:03.000Z,32.5
2022-12-05T19:06:25.000Z,29.65
2022-12-05T19:08:56.000Z,30.93
2022-12-05T19:11:17.000Z,32.08
2022-12-05T19:13:43.000Z,37
2022-12-05T19:16:09.000Z,34.43
2022-12-05T19:18:41.000Z,33.13
2022-12-05T19:21:00.000Z,32.13
2022-12-05T19:23:26.000Z,29.65
2022-12-05T19:25:59.000Z,28.3
2022-12-05T19:28:50.000Z,29.83
2022-12-05T19:31:02.000Z,31.68
2022-12-05T19:33:09.000Z,28.4
2022-12-05T19:35:35.000Z,28.63
2022-12-05T19:37:59.000Z,28.23
2022-12-05T19:40:27.000Z,27.22
2022-12-05T19:42:52.000Z,30.1
2022-12-05T19:45:19.000Z,29.12
2022-12-05T19:47:43.000Z,27.6
2022-12-05T19:50:10.000Z,28.73
2022-12-05T19:52:35.000Z,26.37
2022-12-05T19:55:00.000Z,30.5
2022-12-05T19:57:27.000Z,30.37
2022-12-05T19:59:52.000Z,27.2
2022-12-05T20:02:18.000Z,27.87
2022-12-05T20:04:43.000Z,28.33
2022-12-05T20:07:09.000Z,25.2
2022-12-05T20:09:35.000Z,27.83
2022-12-05T20:12:11.000Z,26.33
2022-12-05T20:14:27.000Z,28.27
2022-12-05T20:16:52.000Z,28.57
2022-12-05T20:19:24.000Z,27.73
2022-12-05T20:21:44.000Z,31.52
2022-12-05T20:24:09.000Z,28.57
2022-12-05T20:26:35.000Z,30.08
2022-12-05T20:29:02.000Z,31.95
2022-12-05T20:31:47.000Z,32.23
2022-12-05T20:33:54.000Z,30.57
2022-12-05T20:36:20.000Z,31.12
2022-12-05T20:38:45.000Z,28.57
2022-12-05T20:41:11.000Z,35.8
2022-12-05T20:43:41.000Z,28.67
2022-12-05T20:46:13.000Z,31.23
2022-12-05T20:48:30.000Z,33.33
2022-12-05T20:50:54.000Z,32.9
2022-12-05T20:53:21.000Z,30.3
2022-12-05T20:55:46.000Z,33.9
2022-12-05T20:58:11.000Z,32.88
2022-12-05T21:00:39.000Z,33.42
2022-12-05T21:03:04.000Z,32.5
2022-12-05T21:05:29.000Z,34.15
2022-12-05T21:07:55.000Z,34.9
2022-12-05T21:10:27.000Z,29.57
2022-12-05T21:12:51.000Z,29.23
2022-12-05T21:15:17.000Z,31.02
2022-12-05T21:17:41.000Z,31.73
2022-12-05T21:20:05.000Z,30.27
2022-12-05T21:22:31.000Z,31.42
2022-12-05T21:24:56.000Z,29.75
2022-12-05T21:27:21.000Z,30.73
2022-12-05T21:29:46.000Z,29.3
2022-12-05T21:32:13.000Z,29.37
2022-12-05T21:34:39.000Z,31.52
2022-12-05T21:37:04.000Z,31.25
2022-12-05T21:39:32.000Z,29.53
2022-12-05T21:41:59.000Z,33.3
2022-12-05T21:44:24.000Z,35.35
2022-12-05T21:46:48.000Z,35.88
2022-12-05T21:49:13.000Z,33.05
2022-12-05T21:51:39.000Z,32.6
2022-12-05T21:54:06.000Z,36.1
2022-12-05T21:56:30.000Z,31.57
2022-12-05T21:58:57.000Z,35
2022-12-05T22:01:23.000Z,34.65
2022-12-05T22:03:47.000Z,35
2022-12-05T22:06:15.000Z,35.73
2022-12-05T22:08:39.000Z,35.78
2022-12-05T22:11:22.000Z,33.8
2022-12-05T22:13:50.000Z,31.63
2022-12-05T22:16:08.000Z,35.65
2022-12-05T22:18:30.000Z,32.3
2022-12-05T22:20:49.000Z,33.8
2022-12-05T22:23:14.000Z,29.87
2022-12-05T22:25:39.000Z,31.37
2022-12-05T22:28:05.000Z,30.83
2022-12-05T22:30:35.000Z,34.88
2022-12-05T22:32:56.000Z,33.08
2022-12-05T22:35:22.000Z,31.43
2022-12-05T22:37:48.000Z,32.4
2022-12-05T22:40:17.000Z,32.8
2022-12-05T22:42:42.000Z,34.13
2022-12-05T22:45:06.000Z,34.93
2022-12-05T22:47:30.000Z,36.27
2022-12-05T22:49:56.000Z,34.83
2022-12-05T22:52:22.000Z,32.98
2022-12-05T22:54:47.000Z,30.27
2022-12-05T22:57:13.000Z,29.33
2022-12-05T22:59:39.000Z,31.73
2022-12-05T23:02:05.000Z,30.43
2022-12-05T23:04:30.000Z,28.33
2022-12-05T23:07:25.000Z,28.5
2022-12-05T23:10:09.000Z,28.92
2022-12-05T23:12:50.000Z,26.83
2022-12-05T23:15:07.000Z,29.63
2022-12-05T23:17:23.000Z,31.1
2022-12-05T23:19:39.000Z,30.17
2022-12-05T23:22:03.000Z,32.13
2022-12-05T23:24:16.000Z,27.77
2022-12-05T23:26:23.000Z,34.27
2022-12-05T23:28:46.000Z,28.77
2022-12-05T23:31:13.000Z,32.17
2022-12-05T23:33:37.000Z,32.38
2022-12-05T23:36:03.000Z,31.7
2022-12-05T23:38:29.000Z,31.23
2022-12-05T23:41:05.000Z,32.4
2022-12-05T23:43:58.000Z,34.43
2022-12-05T23:46:39.000Z,32.55
2022-12-05T23:48:54.000Z,36.4
2022-12-05T23:51:12.000Z,42.35
2022-12-05T23:53:10.000Z,45.2
2022-12-05T23:55:30.000Z,40.9
2022-12-05T23:57:54.000Z,46.8
